DAAG/ALG METAR and TAF weather

Enter ICAO airport designator
Station Type Date Time Source
DAAG METAR 2022/01/29 09:30 UTC NOAA

DAAG 290930Z 22005KT 190V270 CAVOK 11/03 Q1033


Station Type Date Time Source
DAAG Decoded METAR 2022/01/29 09:30 UTC NOAA

Dar-El-Beida, Algeria (DAAG) 36-43N 003-15E 25M
Jan 29, 2022 - 04:30 AM EST / 2022.01.29 0930 UTC
Wind: from the SW (220 degrees) at 6 MPH (5 KT) (direction variable):0
Visibility: greater than 7 mile(s):0
Temperature: 51 F (11 C)
Dew Point: 37 F (3 C)
Relative Humidity: 57%
Pressure (altimeter): 30.50 in. Hg (1033 hPa)
ob: DAAG 290930Z 22005KT 190V270 CAVOK 11/03 Q1033
cycle: 9

Station Type Date Time Source
DAAG TAF 2022/01/29 06:33 UTC NOAA

TAF TAF DAAG 290500Z 2906/3006 VRB02KT 9999 FEW026 PROB30
TEMPO 2906/2908 3000 BR
TEMPO 2912/2916 35010KT

Example: see airport list